sensor_id;sensor_type;location;lat;lon;timestamp;P1;durP1;ratioP1;P2;durP2;ratioP2
15831;SDS011;8016;49.928;9.372;2023-07-13T00:01:11;5.03;;;2.10;;
15831;SDS011;8016;49.928;9.372;2023-07-13T00:03:37;2.43;;;1.70;;
15831;SDS011;8016;49.928;9.372;2023-07-13T00:06:06;3.47;;;1.97;;
15831;SDS011;8016;49.928;9.372;2023-07-13T00:08:32;3.43;;;2.37;;
15831;SDS011;8016;49.928;9.372;2023-07-13T00:10:58;3.00;;;2.20;;
15831;SDS011;8016;49.928;9.372;2023-07-13T00:13:24;4.67;;;2.13;;
15831;SDS011;8016;49.928;9.372;2023-07-13T00:15:50;3.63;;;2.13;;
15831;SDS011;8016;49.928;9.372;2023-07-13T00:18:18;3.50;;;2.00;;
15831;SDS011;8016;49.928;9.372;2023-07-13T00:20:44;3.73;;;2.23;;
15831;SDS011;8016;49.928;9.372;2023-07-13T00:23:10;3.17;;;1.80;;
15831;SDS011;8016;49.928;9.372;2023-07-13T00:25:36;5.67;;;2.30;;
15831;SDS011;8016;49.928;9.372;2023-07-13T00:28:02;2.63;;;2.03;;
15831;SDS011;8016;49.928;9.372;2023-07-13T00:30:28;2.30;;;1.60;;
15831;SDS011;8016;49.928;9.372;2023-07-13T00:32:55;4.20;;;1.90;;
15831;SDS011;8016;49.928;9.372;2023-07-13T00:35:21;4.83;;;2.00;;
15831;SDS011;8016;49.928;9.372;2023-07-13T00:37:47;4.77;;;1.73;;
15831;SDS011;8016;49.928;9.372;2023-07-13T00:40:13;5.57;;;2.00;;
15831;SDS011;8016;49.928;9.372;2023-07-13T00:42:40;3.27;;;2.00;;
15831;SDS011;8016;49.928;9.372;2023-07-13T00:47:38;2.50;;;2.03;;
15831;SDS011;8016;49.928;9.372;2023-07-13T00:50:05;6.07;;;2.20;;
15831;SDS011;8016;49.928;9.372;2023-07-13T00:52:32;3.83;;;2.17;;
15831;SDS011;8016;49.928;9.372;2023-07-13T00:54:58;2.93;;;1.90;;
15831;SDS011;8016;49.928;9.372;2023-07-13T00:57:24;4.30;;;1.90;;
15831;SDS011;8016;49.928;9.372;2023-07-13T00:59:53;3.97;;;2.17;;
15831;SDS011;8016;49.928;9.372;2023-07-13T01:02:19;2.77;;;1.90;;
15831;SDS011;8016;49.928;9.372;2023-07-13T01:04:46;7.60;;;2.33;;
15831;SDS011;8016;49.928;9.372;2023-07-13T01:07:13;2.80;;;2.27;;
15831;SDS011;8016;49.928;9.372;2023-07-13T01:09:39;2.93;;;1.90;;
15831;SDS011;8016;49.928;9.372;2023-07-13T01:12:05;2.63;;;1.93;;
15831;SDS011;8016;49.928;9.372;2023-07-13T01:14:32;4.23;;;2.10;;
15831;SDS011;8016;49.928;9.372;2023-07-13T01:16:58;3.30;;;2.13;;
15831;SDS011;8016;49.928;9.372;2023-07-13T01:19:43;3.30;;;2.00;;
15831;SDS011;8016;49.928;9.372;2023-07-13T01:22:10;3.07;;;1.63;;
15831;SDS011;8016;49.928;9.372;2023-07-13T01:24:37;1.90;;;1.80;;
15831;SDS011;8016;49.928;9.372;2023-07-13T01:27:04;4.93;;;2.60;;
15831;SDS011;8016;49.928;9.372;2023-07-13T01:29:31;2.90;;;2.00;;
15831;SDS011;8016;49.928;9.372;2023-07-13T01:31:58;9.00;;;2.27;;
15831;SDS011;8016;49.928;9.372;2023-07-13T01:34:25;3.27;;;2.07;;
15831;SDS011;8016;49.928;9.372;2023-07-13T01:36:51;2.50;;;1.87;;
15831;SDS011;8016;49.928;9.372;2023-07-13T01:39:18;3.80;;;1.80;;
15831;SDS011;8016;49.928;9.372;2023-07-13T01:41:44;2.70;;;2.23;;
15831;SDS011;8016;49.928;9.372;2023-07-13T01:44:10;4.70;;;2.03;;
15831;SDS011;8016;49.928;9.372;2023-07-13T01:46:36;2.63;;;1.87;;
15831;SDS011;8016;49.928;9.372;2023-07-13T01:49:02;2.37;;;2.10;;
15831;SDS011;8016;49.928;9.372;2023-07-13T01:51:28;3.27;;;2.30;;
15831;SDS011;8016;49.928;9.372;2023-07-13T01:53:54;6.03;;;2.00;;
15831;SDS011;8016;49.928;9.372;2023-07-13T01:56:20;2.87;;;2.33;;
15831;SDS011;8016;49.928;9.372;2023-07-13T01:58:46;4.70;;;2.27;;
15831;SDS011;8016;49.928;9.372;2023-07-13T02:01:12;3.33;;;2.30;;
15831;SDS011;8016;49.928;9.372;2023-07-13T02:03:38;2.27;;;1.80;;
15831;SDS011;8016;49.928;9.372;2023-07-13T02:06:04;3.80;;;2.30;;
15831;SDS011;8016;49.928;9.372;2023-07-13T02:08:32;4.10;;;2.23;;
15831;SDS011;8016;49.928;9.372;2023-07-13T02:10:58;5.13;;;2.20;;
15831;SDS011;8016;49.928;9.372;2023-07-13T02:13:24;2.33;;;2.10;;
15831;SDS011;8016;49.928;9.372;2023-07-13T02:15:51;6.33;;;2.67;;
15831;SDS011;8016;49.928;9.372;2023-07-13T02:18:17;3.30;;;2.53;;
15831;SDS011;8016;49.928;9.372;2023-07-13T02:20:43;3.43;;;2.20;;
15831;SDS011;8016;49.928;9.372;2023-07-13T02:23:09;4.40;;;2.40;;
15831;SDS011;8016;49.928;9.372;2023-07-13T02:25:35;2.80;;;2.17;;
15831;SDS011;8016;49.928;9.372;2023-07-13T02:28:01;5.23;;;2.50;;
15831;SDS011;8016;49.928;9.372;2023-07-13T02:30:27;3.13;;;2.83;;
15831;SDS011;8016;49.928;9.372;2023-07-13T02:32:55;4.03;;;2.50;;
15831;SDS011;8016;49.928;9.372;2023-07-13T02:35:20;3.27;;;2.07;;
15831;SDS011;8016;49.928;9.372;2023-07-13T02:37:47;4.67;;;2.30;;
15831;SDS011;8016;49.928;9.372;2023-07-13T02:40:12;4.37;;;2.20;;
15831;SDS011;8016;49.928;9.372;2023-07-13T02:42:39;3.33;;;2.57;;
15831;SDS011;8016;49.928;9.372;2023-07-13T02:45:05;3.07;;;2.33;;
15831;SDS011;8016;49.928;9.372;2023-07-13T02:47:31;3.40;;;2.30;;
15831;SDS011;8016;49.928;9.372;2023-07-13T02:49:57;3.50;;;2.10;;
15831;SDS011;8016;49.928;9.372;2023-07-13T02:52:24;5.73;;;2.30;;
15831;SDS011;8016;49.928;9.372;2023-07-13T02:54:50;2.77;;;2.10;;
15831;SDS011;8016;49.928;9.372;2023-07-13T02:57:16;4.23;;;2.10;;
15831;SDS011;8016;49.928;9.372;2023-07-13T02:59:42;2.30;;;2.10;;
15831;SDS011;8016;49.928;9.372;2023-07-13T03:02:08;3.43;;;2.40;;
15831;SDS011;8016;49.928;9.372;2023-07-13T03:04:35;2.70;;;2.07;;
15831;SDS011;8016;49.928;9.372;2023-07-13T03:07:01;3.00;;;2.50;;
15831;SDS011;8016;49.928;9.372;2023-07-13T03:09:27;3.57;;;2.57;;
15831;SDS011;8016;49.928;9.372;2023-07-13T03:11:53;3.20;;;2.10;;
15831;SDS011;8016;49.928;9.372;2023-07-13T03:14:20;2.77;;;2.33;;
15831;SDS011;8016;49.928;9.372;2023-07-13T03:16:46;4.67;;;2.47;;
15831;SDS011;8016;49.928;9.372;2023-07-13T03:19:12;4.17;;;2.53;;
15831;SDS011;8016;49.928;9.372;2023-07-13T03:21:38;3.30;;;2.53;;
15831;SDS011;8016;49.928;9.372;2023-07-13T03:24:04;4.13;;;2.47;;
15831;SDS011;8016;49.928;9.372;2023-07-13T03:26:30;5.30;;;2.60;;
15831;SDS011;8016;49.928;9.372;2023-07-13T03:28:56;3.37;;;2.40;;
15831;SDS011;8016;49.928;9.372;2023-07-13T03:31:24;5.00;;;2.50;;
15831;SDS011;8016;49.928;9.372;2023-07-13T03:33:51;4.67;;;2.50;;
15831;SDS011;8016;49.928;9.372;2023-07-13T03:36:21;3.70;;;2.77;;
15831;SDS011;8016;49.928;9.372;2023-07-13T03:38:52;3.13;;;2.63;;
15831;SDS011;8016;49.928;9.372;2023-07-13T03:41:18;3.20;;;2.43;;
15831;SDS011;8016;49.928;9.372;2023-07-13T03:43:44;3.97;;;2.40;;
15831;SDS011;8016;49.928;9.372;2023-07-13T03:46:12;4.17;;;2.90;;
15831;SDS011;8016;49.928;9.372;2023-07-13T03:48:38;6.37;;;3.33;;
15831;SDS011;8016;49.928;9.372;2023-07-13T03:51:05;3.43;;;2.70;;
15831;SDS011;8016;49.928;9.372;2023-07-13T03:53:31;3.57;;;2.30;;
15831;SDS011;8016;49.928;9.372;2023-07-13T03:55:57;7.57;;;2.83;;
15831;SDS011;8016;49.928;9.372;2023-07-13T03:58:25;5.13;;;2.70;;
15831;SDS011;8016;49.928;9.372;2023-07-13T04:00:52;3.33;;;2.40;;
15831;SDS011;8016;49.928;9.372;2023-07-13T04:03:17;5.23;;;2.90;;
15831;SDS011;8016;49.928;9.372;2023-07-13T04:05:43;3.20;;;2.20;;
15831;SDS011;8016;49.928;9.372;2023-07-13T04:08:09;2.77;;;2.50;;
15831;SDS011;8016;49.928;9.372;2023-07-13T04:10:35;6.20;;;2.40;;
15831;SDS011;8016;49.928;9.372;2023-07-13T04:13:01;3.70;;;2.20;;
15831;SDS011;8016;49.928;9.372;2023-07-13T04:15:30;2.80;;;2.23;;
15831;SDS011;8016;49.928;9.372;2023-07-13T04:17:56;3.57;;;2.20;;
15831;SDS011;8016;49.928;9.372;2023-07-13T04:20:24;3.30;;;2.73;;
15831;SDS011;8016;49.928;9.372;2023-07-13T04:22:50;2.60;;;2.40;;
15831;SDS011;8016;49.928;9.372;2023-07-13T04:25:16;2.80;;;2.37;;
15831;SDS011;8016;49.928;9.372;2023-07-13T04:27:42;3.13;;;2.80;;
15831;SDS011;8016;49.928;9.372;2023-07-13T04:30:08;2.60;;;2.40;;
15831;SDS011;8016;49.928;9.372;2023-07-13T04:32:34;3.60;;;2.37;;
15831;SDS011;8016;49.928;9.372;2023-07-13T04:35:00;5.40;;;2.57;;
15831;SDS011;8016;49.928;9.372;2023-07-13T04:37:26;2.70;;;2.50;;
15831;SDS011;8016;49.928;9.372;2023-07-13T04:39:52;3.73;;;2.43;;
15831;SDS011;8016;49.928;9.372;2023-07-13T04:42:18;3.93;;;2.10;;
15831;SDS011;8016;49.928;9.372;2023-07-13T04:44:50;6.07;;;2.60;;
15831;SDS011;8016;49.928;9.372;2023-07-13T04:47:17;9.70;;;2.43;;
15831;SDS011;8016;49.928;9.372;2023-07-13T04:49:44;4.00;;;2.30;;
15831;SDS011;8016;49.928;9.372;2023-07-13T04:52:10;6.70;;;2.33;;
15831;SDS011;8016;49.928;9.372;2023-07-13T04:54:36;4.43;;;2.13;;
15831;SDS011;8016;49.928;9.372;2023-07-13T04:57:03;9.03;;;2.77;;
15831;SDS011;8016;49.928;9.372;2023-07-13T04:59:31;4.60;;;2.00;;
15831;SDS011;8016;49.928;9.372;2023-07-13T05:01:57;3.23;;;1.80;;
15831;SDS011;8016;49.928;9.372;2023-07-13T05:04:23;1.77;;;1.67;;
15831;SDS011;8016;49.928;9.372;2023-07-13T05:06:49;1.47;;;1.37;;
15831;SDS011;8016;49.928;9.372;2023-07-13T05:09:15;3.50;;;2.13;;
15831;SDS011;8016;49.928;9.372;2023-07-13T05:11:41;2.57;;;1.20;;
15831;SDS011;8016;49.928;9.372;2023-07-13T05:14:07;1.77;;;1.43;;
15831;SDS011;8016;49.928;9.372;2023-07-13T05:16:34;2.57;;;1.60;;
15831;SDS011;8016;49.928;9.372;2023-07-13T05:19:00;2.10;;;1.50;;
15831;SDS011;8016;49.928;9.372;2023-07-13T05:21:26;4.20;;;1.73;;
15831;SDS011;8016;49.928;9.372;2023-07-13T05:23:52;4.67;;;1.80;;
15831;SDS011;8016;49.928;9.372;2023-07-13T05:26:18;3.47;;;1.50;;
15831;SDS011;8016;49.928;9.372;2023-07-13T05:28:45;2.40;;;1.60;;
15831;SDS011;8016;49.928;9.372;2023-07-13T05:31:12;3.93;;;1.30;;
15831;SDS011;8016;49.928;9.372;2023-07-13T05:33:38;2.47;;;1.87;;
15831;SDS011;8016;49.928;9.372;2023-07-13T05:36:04;1.90;;;1.57;;
15831;SDS011;8016;49.928;9.372;2023-07-13T05:38:30;3.50;;;1.87;;
15831;SDS011;8016;49.928;9.372;2023-07-13T05:40:57;2.57;;;1.90;;
15831;SDS011;8016;49.928;9.372;2023-07-13T05:43:23;2.60;;;1.60;;
15831;SDS011;8016;49.928;9.372;2023-07-13T05:45:49;3.60;;;1.50;;
15831;SDS011;8016;49.928;9.372;2023-07-13T05:48:16;3.47;;;1.90;;
15831;SDS011;8016;49.928;9.372;2023-07-13T05:50:42;3.90;;;1.67;;
15831;SDS011;8016;49.928;9.372;2023-07-13T05:53:08;1.97;;;1.40;;
15831;SDS011;8016;49.928;9.372;2023-07-13T05:55:34;3.37;;;1.30;;
15831;SDS011;8016;49.928;9.372;2023-07-13T05:58:00;2.23;;;1.50;;
15831;SDS011;8016;49.928;9.372;2023-07-13T06:00:26;3.20;;;1.47;;
15831;SDS011;8016;49.928;9.372;2023-07-13T06:02:52;2.40;;;1.50;;
15831;SDS011;8016;49.928;9.372;2023-07-13T06:05:18;1.90;;;1.20;;
15831;SDS011;8016;49.928;9.372;2023-07-13T06:07:44;2.60;;;1.30;;
15831;SDS011;8016;49.928;9.372;2023-07-13T06:10:10;7.20;;;1.70;;
15831;SDS011;8016;49.928;9.372;2023-07-13T06:12:36;4.10;;;1.20;;
15831;SDS011;8016;49.928;9.372;2023-07-13T06:15:02;4.23;;;1.27;;
15831;SDS011;8016;49.928;9.372;2023-07-13T06:17:28;3.23;;;1.00;;
15831;SDS011;8016;49.928;9.372;2023-07-13T06:19:54;4.60;;;1.30;;
15831;SDS011;8016;49.928;9.372;2023-07-13T06:22:20;3.70;;;1.17;;
15831;SDS011;8016;49.928;9.372;2023-07-13T06:24:46;3.13;;;1.40;;
15831;SDS011;8016;49.928;9.372;2023-07-13T06:27:12;3.87;;;1.23;;
15831;SDS011;8016;49.928;9.372;2023-07-13T06:29:38;3.67;;;1.20;;
15831;SDS011;8016;49.928;9.372;2023-07-13T06:32:05;3.10;;;1.00;;
15831;SDS011;8016;49.928;9.372;2023-07-13T06:34:31;5.63;;;1.73;;
15831;SDS011;8016;49.928;9.372;2023-07-13T06:36:57;2.73;;;1.23;;
15831;SDS011;8016;49.928;9.372;2023-07-13T06:39:23;2.97;;;1.13;;
15831;SDS011;8016;49.928;9.372;2023-07-13T06:41:49;1.93;;;0.93;;
15831;SDS011;8016;49.928;9.372;2023-07-13T06:44:15;2.20;;;1.13;;
15831;SDS011;8016;49.928;9.372;2023-07-13T06:46:41;2.83;;;1.13;;
15831;SDS011;8016;49.928;9.372;2023-07-13T06:49:08;3.47;;;1.23;;
15831;SDS011;8016;49.928;9.372;2023-07-13T06:51:34;7.37;;;1.47;;
15831;SDS011;8016;49.928;9.372;2023-07-13T06:54:00;2.73;;;1.20;;
15831;SDS011;8016;49.928;9.372;2023-07-13T06:56:26;3.13;;;1.70;;
15831;SDS011;8016;49.928;9.372;2023-07-13T06:58:52;2.47;;;0.90;;
15831;SDS011;8016;49.928;9.372;2023-07-13T07:01:18;4.33;;;1.00;;
15831;SDS011;8016;49.928;9.372;2023-07-13T07:03:44;2.77;;;1.00;;
15831;SDS011;8016;49.928;9.372;2023-07-13T07:06:15;2.57;;;1.23;;
15831;SDS011;8016;49.928;9.372;2023-07-13T07:08:41;5.87;;;1.43;;
15831;SDS011;8016;49.928;9.372;2023-07-13T07:11:18;2.90;;;1.20;;
15831;SDS011;8016;49.928;9.372;2023-07-13T07:13:44;4.97;;;1.20;;
15831;SDS011;8016;49.928;9.372;2023-07-13T07:16:10;4.23;;;1.43;;
15831;SDS011;8016;49.928;9.372;2023-07-13T07:18:36;4.30;;;1.37;;
15831;SDS011;8016;49.928;9.372;2023-07-13T07:21:03;5.40;;;1.30;;
15831;SDS011;8016;49.928;9.372;2023-07-13T07:23:30;3.70;;;0.87;;
15831;SDS011;8016;49.928;9.372;2023-07-13T07:25:56;2.63;;;1.20;;
15831;SDS011;8016;49.928;9.372;2023-07-13T07:28:22;5.53;;;1.20;;
15831;SDS011;8016;49.928;9.372;2023-07-13T07:30:48;2.87;;;1.30;;
15831;SDS011;8016;49.928;9.372;2023-07-13T07:33:15;1.93;;;1.00;;
15831;SDS011;8016;49.928;9.372;2023-07-13T07:35:42;5.90;;;1.47;;
15831;SDS011;8016;49.928;9.372;2023-07-13T07:38:08;2.10;;;1.10;;
15831;SDS011;8016;49.928;9.372;2023-07-13T07:40:38;1.77;;;1.10;;
15831;SDS011;8016;49.928;9.372;2023-07-13T07:43:05;4.47;;;1.20;;
15831;SDS011;8016;49.928;9.372;2023-07-13T07:45:31;3.93;;;1.50;;
15831;SDS011;8016;49.928;9.372;2023-07-13T07:47:57;5.10;;;1.30;;
15831;SDS011;8016;49.928;9.372;2023-07-13T07:50:27;6.03;;;1.43;;
15831;SDS011;8016;49.928;9.372;2023-07-13T07:52:53;5.40;;;1.60;;
15831;SDS011;8016;49.928;9.372;2023-07-13T07:55:23;2.53;;;1.07;;
15831;SDS011;8016;49.928;9.372;2023-07-13T07:57:50;5.87;;;1.40;;
15831;SDS011;8016;49.928;9.372;2023-07-13T08:00:16;3.03;;;1.33;;
15831;SDS011;8016;49.928;9.372;2023-07-13T08:02:43;5.07;;;1.50;;
15831;SDS011;8016;49.928;9.372;2023-07-13T08:05:09;3.50;;;1.20;;
15831;SDS011;8016;49.928;9.372;2023-07-13T08:07:39;3.73;;;1.10;;
15831;SDS011;8016;49.928;9.372;2023-07-13T08:10:08;3.23;;;1.43;;
15831;SDS011;8016;49.928;9.372;2023-07-13T08:12:35;3.40;;;1.40;;
15831;SDS011;8016;49.928;9.372;2023-07-13T08:15:01;4.10;;;1.20;;
15831;SDS011;8016;49.928;9.372;2023-07-13T08:17:27;3.97;;;1.20;;
15831;SDS011;8016;49.928;9.372;2023-07-13T08:19:53;2.03;;;1.07;;
15831;SDS011;8016;49.928;9.372;2023-07-13T08:22:19;2.87;;;1.30;;
15831;SDS011;8016;49.928;9.372;2023-07-13T08:24:45;2.67;;;1.10;;
15831;SDS011;8016;49.928;9.372;2023-07-13T08:27:12;2.03;;;1.03;;
15831;SDS011;8016;49.928;9.372;2023-07-13T08:29:38;2.23;;;0.93;;
15831;SDS011;8016;49.928;9.372;2023-07-13T08:32:05;5.33;;;0.90;;
15831;SDS011;8016;49.928;9.372;2023-07-13T08:34:34;3.00;;;1.00;;
15831;SDS011;8016;49.928;9.372;2023-07-13T08:37:00;2.27;;;1.03;;
15831;SDS011;8016;49.928;9.372;2023-07-13T08:39:26;2.03;;;1.17;;
15831;SDS011;8016;49.928;9.372;2023-07-13T08:41:53;2.67;;;0.97;;
15831;SDS011;8016;49.928;9.372;2023-07-13T08:44:25;3.73;;;1.30;;
15831;SDS011;8016;49.928;9.372;2023-07-13T08:46:53;3.30;;;1.10;;
15831;SDS011;8016;49.928;9.372;2023-07-13T08:49:20;6.87;;;1.10;;
15831;SDS011;8016;49.928;9.372;2023-07-13T08:51:52;3.67;;;1.10;;
15831;SDS011;8016;49.928;9.372;2023-07-13T08:56:46;6.03;;;1.60;;
15831;SDS011;8016;49.928;9.372;2023-07-13T08:59:16;4.67;;;1.30;;
15831;SDS011;8016;49.928;9.372;2023-07-13T09:02:07;10.20;;;1.50;;
15831;SDS011;8016;49.928;9.372;2023-07-13T09:04:34;3.67;;;1.53;;
15831;SDS011;8016;49.928;9.372;2023-07-13T09:07:05;3.23;;;1.30;;
15831;SDS011;8016;49.928;9.372;2023-07-13T09:12:18;3.90;;;1.23;;
15831;SDS011;8016;49.928;9.372;2023-07-13T09:14:49;3.57;;;1.30;;
15831;SDS011;8016;49.928;9.372;2023-07-13T09:17:26;4.00;;;1.30;;
15831;SDS011;8016;49.928;9.372;2023-07-13T09:19:56;4.13;;;1.30;;
15831;SDS011;8016;49.928;9.372;2023-07-13T09:22:22;3.30;;;1.00;;
15831;SDS011;8016;49.928;9.372;2023-07-13T09:25:00;2.43;;;1.10;;
15831;SDS011;8016;49.928;9.372;2023-07-13T09:27:46;3.97;;;1.50;;
15831;SDS011;8016;49.928;9.372;2023-07-13T09:32:39;4.47;;;1.40;;
15831;SDS011;8016;49.928;9.372;2023-07-13T09:35:19;9.33;;;1.57;;
15831;SDS011;8016;49.928;9.372;2023-07-13T09:37:46;3.37;;;1.40;;
15831;SDS011;8016;49.928;9.372;2023-07-13T09:40:24;2.77;;;1.20;;
15831;SDS011;8016;49.928;9.372;2023-07-13T09:42:51;3.13;;;1.20;;
15831;SDS011;8016;49.928;9.372;2023-07-13T09:45:26;4.00;;;1.10;;
15831;SDS011;8016;49.928;9.372;2023-07-13T09:47:58;3.87;;;1.07;;
15831;SDS011;8016;49.928;9.372;2023-07-13T09:50:24;3.00;;;1.30;;
15831;SDS011;8016;49.928;9.372;2023-07-13T09:52:51;4.43;;;1.00;;
15831;SDS011;8016;49.928;9.372;2023-07-13T09:55:27;2.38;;;1.00;;
15831;SDS011;8016;49.928;9.372;2023-07-13T09:57:54;1.63;;;1.10;;
15831;SDS011;8016;49.928;9.372;2023-07-13T10:00:22;2.67;;;1.23;;
15831;SDS011;8016;49.928;9.372;2023-07-13T10:02:57;2.40;;;1.10;;
15831;SDS011;8016;49.928;9.372;2023-07-13T10:05:23;5.00;;;1.40;;
15831;SDS011;8016;49.928;9.372;2023-07-13T10:07:50;5.40;;;1.30;;
15831;SDS011;8016;49.928;9.372;2023-07-13T10:10:18;6.00;;;1.10;;
15831;SDS011;8016;49.928;9.372;2023-07-13T10:12:45;2.33;;;1.03;;
15831;SDS011;8016;49.928;9.372;2023-07-13T10:15:18;4.68;;;1.33;;
15831;SDS011;8016;49.928;9.372;2023-07-13T10:17:45;4.33;;;1.00;;
15831;SDS011;8016;49.928;9.372;2023-07-13T10:20:11;2.95;;;1.05;;
15831;SDS011;8016;49.928;9.372;2023-07-13T10:22:49;4.03;;;1.25;;
15831;SDS011;8016;49.928;9.372;2023-07-13T10:25:20;2.00;;;0.95;;
15831;SDS011;8016;49.928;9.372;2023-07-13T10:27:48;4.78;;;1.40;;
15831;SDS011;8016;49.928;9.372;2023-07-13T10:30:23;3.38;;;1.25;;
15831;SDS011;8016;49.928;9.372;2023-07-13T10:32:54;4.43;;;1.23;;
15831;SDS011;8016;49.928;9.372;2023-07-13T10:35:20;3.42;;;1.52;;
15831;SDS011;8016;49.928;9.372;2023-07-13T10:38:06;4.15;;;1.35;;
15831;SDS011;8016;49.928;9.372;2023-07-13T10:40:38;4.70;;;1.20;;
15831;SDS011;8016;49.928;9.372;2023-07-13T10:43:28;5.15;;;1.10;;
15831;SDS011;8016;49.928;9.372;2023-07-13T10:45:53;2.88;;;1.00;;
15831;SDS011;8016;49.928;9.372;2023-07-13T10:48:20;4.68;;;1.58;;
15831;SDS011;8016;49.928;9.372;2023-07-13T10:50:48;2.55;;;1.02;;
15831;SDS011;8016;49.928;9.372;2023-07-13T10:53:18;1.75;;;0.90;;
15831;SDS011;8016;49.928;9.372;2023-07-13T10:58:18;1.48;;;0.73;;
15831;SDS011;8016;49.928;9.372;2023-07-13T11:03:15;1.73;;;0.98;;
15831;SDS011;8016;49.928;9.372;2023-07-13T11:05:43;1.75;;;0.93;;
15831;SDS011;8016;49.928;9.372;2023-07-13T11:10:49;3.08;;;0.90;;
15831;SDS011;8016;49.928;9.372;2023-07-13T11:15:56;2.00;;;1.00;;
15831;SDS011;8016;49.928;9.372;2023-07-13T11:18:23;2.72;;;0.93;;
15831;SDS011;8016;49.928;9.372;2023-07-13T11:20:50;1.20;;;1.05;;
15831;SDS011;8016;49.928;9.372;2023-07-13T11:25:42;2.88;;;1.20;;
15831;SDS011;8016;49.928;9.372;2023-07-13T11:33:10;1.42;;;1.05;;
15831;SDS011;8016;49.928;9.372;2023-07-13T11:35:41;2.17;;;1.05;;
15831;SDS011;8016;49.928;9.372;2023-07-13T11:38:13;2.10;;;1.38;;
15831;SDS011;8016;49.928;9.372;2023-07-13T11:40:40;4.18;;;1.10;;
15831;SDS011;8016;49.928;9.372;2023-07-13T11:43:06;1.58;;;1.00;;
15831;SDS011;8016;49.928;9.372;2023-07-13T11:45:32;4.97;;;1.17;;
15831;SDS011;8016;49.928;9.372;2023-07-13T11:47:59;2.63;;;1.08;;
15831;SDS011;8016;49.928;9.372;2023-07-13T11:50:26;2.03;;;1.13;;
15831;SDS011;8016;49.928;9.372;2023-07-13T11:52:52;1.95;;;1.05;;
15831;SDS011;8016;49.928;9.372;2023-07-13T11:55:21;3.33;;;1.05;;
15831;SDS011;8016;49.928;9.372;2023-07-13T11:57:50;2.40;;;0.98;;
15831;SDS011;8016;49.928;9.372;2023-07-13T12:00:26;3.75;;;1.40;;
15831;SDS011;8016;49.928;9.372;2023-07-13T12:02:54;2.63;;;1.00;;
15831;SDS011;8016;49.928;9.372;2023-07-13T12:05:21;1.83;;;1.00;;
15831;SDS011;8016;49.928;9.372;2023-07-13T12:07:49;2.22;;;1.10;;
15831;SDS011;8016;49.928;9.372;2023-07-13T12:10:23;1.65;;;0.90;;
15831;SDS011;8016;49.928;9.372;2023-07-13T12:15:16;4.50;;;1.13;;
15831;SDS011;8016;49.928;9.372;2023-07-13T12:17:42;2.50;;;1.20;;
15831;SDS011;8016;49.928;9.372;2023-07-13T12:20:17;3.10;;;1.15;;
15831;SDS011;8016;49.928;9.372;2023-07-13T12:22:48;5.05;;;1.20;;
15831;SDS011;8016;49.928;9.372;2023-07-13T12:25:15;2.05;;;1.13;;
15831;SDS011;8016;49.928;9.372;2023-07-13T12:27:42;2.67;;;1.13;;
15831;SDS011;8016;49.928;9.372;2023-07-13T12:32:58;5.03;;;1.55;;
15831;SDS011;8016;49.928;9.372;2023-07-13T12:35:29;4.18;;;1.25;;
15831;SDS011;8016;49.928;9.372;2023-07-13T12:37:56;1.60;;;1.08;;
15831;SDS011;8016;49.928;9.372;2023-07-13T12:40:25;2.30;;;1.13;;
15831;SDS011;8016;49.928;9.372;2023-07-13T12:42:52;2.75;;;0.90;;
15831;SDS011;8016;49.928;9.372;2023-07-13T12:45:19;2.80;;;1.10;;
15831;SDS011;8016;49.928;9.372;2023-07-13T12:47:50;1.80;;;0.82;;
15831;SDS011;8016;49.928;9.372;2023-07-13T12:50:17;1.42;;;1.00;;
15831;SDS011;8016;49.928;9.372;2023-07-13T12:52:44;1.83;;;1.10;;
15831;SDS011;8016;49.928;9.372;2023-07-13T12:55:15;1.77;;;1.08;;
15831;SDS011;8016;49.928;9.372;2023-07-13T12:57:50;4.30;;;0.95;;
15831;SDS011;8016;49.928;9.372;2023-07-13T13:02:45;2.28;;;1.08;;
15831;SDS011;8016;49.928;9.372;2023-07-13T13:05:12;3.65;;;1.17;;
15831;SDS011;8016;49.928;9.372;2023-07-13T13:07:39;2.65;;;1.33;;
15831;SDS011;8016;49.928;9.372;2023-07-13T13:10:13;3.95;;;1.30;;
15831;SDS011;8016;49.928;9.372;2023-07-13T13:12:40;2.25;;;1.08;;
15831;SDS011;8016;49.928;9.372;2023-07-13T13:15:07;1.73;;;1.10;;
15831;SDS011;8016;49.928;9.372;2023-07-13T13:17:33;2.78;;;0.95;;
15831;SDS011;8016;49.928;9.372;2023-07-13T13:19:59;4.97;;;1.42;;
15831;SDS011;8016;49.928;9.372;2023-07-13T13:22:25;1.65;;;1.00;;
15831;SDS011;8016;49.928;9.372;2023-07-13T13:24:51;3.25;;;1.40;;
15831;SDS011;8016;49.928;9.372;2023-07-13T13:27:18;5.03;;;1.17;;
15831;SDS011;8016;49.928;9.372;2023-07-13T13:29:45;2.70;;;1.13;;
15831;SDS011;8016;49.928;9.372;2023-07-13T13:32:11;4.53;;;1.40;;
15831;SDS011;8016;49.928;9.372;2023-07-13T13:34:38;2.20;;;0.98;;
15831;SDS011;8016;49.928;9.372;2023-07-13T13:37:04;3.70;;;1.25;;
15831;SDS011;8016;49.928;9.372;2023-07-13T13:39:35;2.53;;;0.95;;
15831;SDS011;8016;49.928;9.372;2023-07-13T13:42:02;2.85;;;1.30;;
15831;SDS011;8016;49.928;9.372;2023-07-13T13:44:28;3.28;;;1.38;;
15831;SDS011;8016;49.928;9.372;2023-07-13T13:46:54;1.75;;;0.90;;
15831;SDS011;8016;49.928;9.372;2023-07-13T13:49:23;1.77;;;1.10;;
15831;SDS011;8016;49.928;9.372;2023-07-13T13:51:49;3.88;;;1.30;;
15831;SDS011;8016;49.928;9.372;2023-07-13T13:54:16;2.90;;;1.00;;
15831;SDS011;8016;49.928;9.372;2023-07-13T13:56:43;3.28;;;1.05;;
15831;SDS011;8016;49.928;9.372;2023-07-13T13:59:09;2.65;;;1.17;;
15831;SDS011;8016;49.928;9.372;2023-07-13T14:01:35;2.08;;;1.15;;
15831;SDS011;8016;49.928;9.372;2023-07-13T14:04:02;3.20;;;1.00;;
15831;SDS011;8016;49.928;9.372;2023-07-13T14:06:28;4.00;;;1.35;;
15831;SDS011;8016;49.928;9.372;2023-07-13T14:08:54;2.65;;;1.17;;
15831;SDS011;8016;49.928;9.372;2023-07-13T14:11:21;3.42;;;1.38;;
15831;SDS011;8016;49.928;9.372;2023-07-13T14:13:48;4.93;;;1.23;;
15831;SDS011;8016;49.928;9.372;2023-07-13T14:16:19;4.38;;;1.10;;
15831;SDS011;8016;49.928;9.372;2023-07-13T14:18:46;2.30;;;1.05;;
15831;SDS011;8016;49.928;9.372;2023-07-13T14:21:16;4.55;;;1.33;;
15831;SDS011;8016;49.928;9.372;2023-07-13T14:23:43;2.58;;;1.13;;
15831;SDS011;8016;49.928;9.372;2023-07-13T14:26:25;1.80;;;0.90;;
15831;SDS011;8016;49.928;9.372;2023-07-13T14:28:55;1.95;;;0.98;;
15831;SDS011;8016;49.928;9.372;2023-07-13T14:31:23;3.92;;;1.20;;
15831;SDS011;8016;49.928;9.372;2023-07-13T14:33:49;3.45;;;1.45;;
15831;SDS011;8016;49.928;9.372;2023-07-13T14:36:31;2.20;;;1.38;;
15831;SDS011;8016;49.928;9.372;2023-07-13T14:38:58;1.30;;;1.20;;
15831;SDS011;8016;49.928;9.372;2023-07-13T14:41:24;2.53;;;1.33;;
15831;SDS011;8016;49.928;9.372;2023-07-13T14:43:51;2.35;;;1.33;;
15831;SDS011;8016;49.928;9.372;2023-07-13T14:46:30;2.83;;;1.20;;
15831;SDS011;8016;49.928;9.372;2023-07-13T14:49:04;3.58;;;1.52;;
15831;SDS011;8016;49.928;9.372;2023-07-13T14:51:31;2.22;;;1.40;;
15831;SDS011;8016;49.928;9.372;2023-07-13T14:53:58;9.48;;;1.20;;
15831;SDS011;8016;49.928;9.372;2023-07-13T14:56:24;7.95;;;1.45;;
15831;SDS011;8016;49.928;9.372;2023-07-13T14:58:50;4.63;;;1.35;;
15831;SDS011;8016;49.928;9.372;2023-07-13T15:01:18;4.55;;;1.30;;
15831;SDS011;8016;49.928;9.372;2023-07-13T15:03:45;3.17;;;1.05;;
15831;SDS011;8016;49.928;9.372;2023-07-13T15:06:11;1.75;;;1.00;;
15831;SDS011;8016;49.928;9.372;2023-07-13T15:08:38;2.20;;;1.17;;
15831;SDS011;8016;49.928;9.372;2023-07-13T15:11:05;5.13;;;1.20;;
15831;SDS011;8016;49.928;9.372;2023-07-13T15:13:31;1.40;;;1.05;;
15831;SDS011;8016;49.928;9.372;2023-07-13T15:15:57;3.63;;;1.30;;
15831;SDS011;8016;49.928;9.372;2023-07-13T15:18:23;2.10;;;1.20;;
15831;SDS011;8016;49.928;9.372;2023-07-13T15:20:52;3.60;;;1.50;;
15831;SDS011;8016;49.928;9.372;2023-07-13T15:23:21;3.28;;;1.40;;
15831;SDS011;8016;49.928;9.372;2023-07-13T15:25:48;2.05;;;1.23;;
15831;SDS011;8016;49.928;9.372;2023-07-13T15:28:14;4.40;;;1.15;;
15831;SDS011;8016;49.928;9.372;2023-07-13T15:30:41;5.13;;;1.60;;
15831;SDS011;8016;49.928;9.372;2023-07-13T15:33:13;5.72;;;1.02;;
15831;SDS011;8016;49.928;9.372;2023-07-13T15:35:42;2.42;;;1.10;;
15831;SDS011;8016;49.928;9.372;2023-07-13T15:38:15;2.70;;;1.23;;